sensor_id;sensor_type;location;lat;lon;timestamp;P1;durP1;ratioP1;P2;durP2;ratioP2
7545;SDS011;3814;51.454;12.616;2024-02-26T00:01:24;4.03;;;2.70;;
7545;SDS011;3814;51.454;12.616;2024-02-26T00:03:50;3.83;;;2.50;;
7545;SDS011;3814;51.454;12.616;2024-02-26T00:06:15;3.93;;;2.60;;
7545;SDS011;3814;51.454;12.616;2024-02-26T00:08:40;2.73;;;2.07;;
7545;SDS011;3814;51.454;12.616;2024-02-26T00:11:05;3.90;;;2.57;;
7545;SDS011;3814;51.454;12.616;2024-02-26T00:13:31;5.23;;;2.63;;
7545;SDS011;3814;51.454;12.616;2024-02-26T00:15:56;5.53;;;2.73;;
7545;SDS011;3814;51.454;12.616;2024-02-26T00:18:21;3.83;;;2.60;;
7545;SDS011;3814;51.454;12.616;2024-02-26T00:20:47;4.57;;;2.57;;
7545;SDS011;3814;51.454;12.616;2024-02-26T00:23:14;4.13;;;2.80;;
7545;SDS011;3814;51.454;12.616;2024-02-26T00:25:40;4.75;;;3.10;;
7545;SDS011;3814;51.454;12.616;2024-02-26T00:28:07;6.00;;;3.17;;
7545;SDS011;3814;51.454;12.616;2024-02-26T00:30:32;4.57;;;2.83;;
7545;SDS011;3814;51.454;12.616;2024-02-26T00:32:58;4.50;;;3.20;;
7545;SDS011;3814;51.454;12.616;2024-02-26T00:35:23;7.17;;;3.57;;
7545;SDS011;3814;51.454;12.616;2024-02-26T00:37:48;4.77;;;3.40;;
7545;SDS011;3814;51.454;12.616;2024-02-26T00:40:14;5.10;;;2.87;;
7545;SDS011;3814;51.454;12.616;2024-02-26T00:42:39;4.47;;;3.70;;
7545;SDS011;3814;51.454;12.616;2024-02-26T00:45:10;5.53;;;3.50;;
7545;SDS011;3814;51.454;12.616;2024-02-26T00:47:35;5.50;;;3.77;;
7545;SDS011;3814;51.454;12.616;2024-02-26T00:50:00;6.73;;;3.60;;
7545;SDS011;3814;51.454;12.616;2024-02-26T00:52:26;5.50;;;3.80;;
7545;SDS011;3814;51.454;12.616;2024-02-26T00:54:51;6.93;;;3.57;;
7545;SDS011;3814;51.454;12.616;2024-02-26T00:57:16;5.87;;;3.23;;
7545;SDS011;3814;51.454;12.616;2024-02-26T00:59:42;6.93;;;3.90;;
7545;SDS011;3814;51.454;12.616;2024-02-26T01:02:07;7.83;;;3.97;;
7545;SDS011;3814;51.454;12.616;2024-02-26T01:04:32;6.40;;;3.43;;
7545;SDS011;3814;51.454;12.616;2024-02-26T01:06:59;5.85;;;3.58;;
7545;SDS011;3814;51.454;12.616;2024-02-26T01:09:24;6.33;;;3.33;;
7545;SDS011;3814;51.454;12.616;2024-02-26T01:11:49;6.37;;;3.77;;
7545;SDS011;3814;51.454;12.616;2024-02-26T01:14:15;5.97;;;3.60;;
7545;SDS011;3814;51.454;12.616;2024-02-26T01:16:40;5.47;;;3.63;;
7545;SDS011;3814;51.454;12.616;2024-02-26T01:19:05;5.37;;;3.47;;
7545;SDS011;3814;51.454;12.616;2024-02-26T01:21:30;8.10;;;4.00;;
7545;SDS011;3814;51.454;12.616;2024-02-26T01:23:56;6.55;;;3.97;;
7545;SDS011;3814;51.454;12.616;2024-02-26T01:26:21;5.47;;;3.97;;
7545;SDS011;3814;51.454;12.616;2024-02-26T01:28:46;6.00;;;4.17;;
7545;SDS011;3814;51.454;12.616;2024-02-26T01:31:13;4.97;;;3.85;;
7545;SDS011;3814;51.454;12.616;2024-02-26T01:33:38;4.95;;;3.50;;
7545;SDS011;3814;51.454;12.616;2024-02-26T01:36:03;5.63;;;3.80;;
7545;SDS011;3814;51.454;12.616;2024-02-26T01:38:29;6.15;;;3.45;;
7545;SDS011;3814;51.454;12.616;2024-02-26T01:40:54;5.53;;;3.50;;
7545;SDS011;3814;51.454;12.616;2024-02-26T01:43:19;7.83;;;3.60;;
7545;SDS011;3814;51.454;12.616;2024-02-26T01:45:46;4.63;;;3.38;;
7545;SDS011;3814;51.454;12.616;2024-02-26T01:48:11;5.78;;;3.38;;
7545;SDS011;3814;51.454;12.616;2024-02-26T01:50:37;6.43;;;3.40;;
7545;SDS011;3814;51.454;12.616;2024-02-26T01:53:03;6.07;;;3.80;;
7545;SDS011;3814;51.454;12.616;2024-02-26T01:55:29;6.82;;;3.88;;
7545;SDS011;3814;51.454;12.616;2024-02-26T01:57:54;5.73;;;3.50;;
7545;SDS011;3814;51.454;12.616;2024-02-26T02:00:20;6.22;;;3.85;;
7545;SDS011;3814;51.454;12.616;2024-02-26T02:02:46;5.18;;;3.50;;
7545;SDS011;3814;51.454;12.616;2024-02-26T02:05:13;6.10;;;3.85;;
7545;SDS011;3814;51.454;12.616;2024-02-26T02:07:40;7.57;;;4.68;;
7545;SDS011;3814;51.454;12.616;2024-02-26T02:10:06;9.10;;;4.65;;
7545;SDS011;3814;51.454;12.616;2024-02-26T02:12:32;5.68;;;4.45;;
7545;SDS011;3814;51.454;12.616;2024-02-26T02:14:58;7.97;;;5.05;;
7545;SDS011;3814;51.454;12.616;2024-02-26T02:17:23;9.43;;;5.38;;
7545;SDS011;3814;51.454;12.616;2024-02-26T02:19:48;8.43;;;5.03;;
7545;SDS011;3814;51.454;12.616;2024-02-26T02:22:14;9.37;;;5.17;;
7545;SDS011;3814;51.454;12.616;2024-02-26T02:24:39;12.20;;;5.40;;
7545;SDS011;3814;51.454;12.616;2024-02-26T02:27:04;8.33;;;4.90;;
7545;SDS011;3814;51.454;12.616;2024-02-26T02:29:30;9.10;;;5.20;;
7545;SDS011;3814;51.454;12.616;2024-02-26T02:31:55;9.43;;;5.80;;
7545;SDS011;3814;51.454;12.616;2024-02-26T02:34:21;9.10;;;5.88;;
7545;SDS011;3814;51.454;12.616;2024-02-26T02:36:53;10.35;;;5.85;;
7545;SDS011;3814;51.454;12.616;2024-02-26T02:39:19;11.27;;;6.30;;
7545;SDS011;3814;51.454;12.616;2024-02-26T02:41:44;11.20;;;6.25;;
7545;SDS011;3814;51.454;12.616;2024-02-26T02:44:09;11.60;;;5.93;;
7545;SDS011;3814;51.454;12.616;2024-02-26T02:46:35;13.70;;;7.10;;
7545;SDS011;3814;51.454;12.616;2024-02-26T02:49:00;10.70;;;7.32;;
7545;SDS011;3814;51.454;12.616;2024-02-26T02:51:26;13.93;;;8.07;;
7545;SDS011;3814;51.454;12.616;2024-02-26T02:53:51;15.00;;;7.37;;
7545;SDS011;3814;51.454;12.616;2024-02-26T02:56:16;13.93;;;7.20;;
7545;SDS011;3814;51.454;12.616;2024-02-26T02:58:42;12.55;;;7.00;;
7545;SDS011;3814;51.454;12.616;2024-02-26T03:01:07;13.37;;;7.63;;
7545;SDS011;3814;51.454;12.616;2024-02-26T03:03:32;14.50;;;8.33;;
7545;SDS011;3814;51.454;12.616;2024-02-26T03:05:58;15.93;;;7.95;;
7545;SDS011;3814;51.454;12.616;2024-02-26T03:08:23;14.00;;;7.53;;
7545;SDS011;3814;51.454;12.616;2024-02-26T03:10:50;11.80;;;6.72;;
7545;SDS011;3814;51.454;12.616;2024-02-26T03:13:16;13.10;;;7.28;;
7545;SDS011;3814;51.454;12.616;2024-02-26T03:15:42;13.73;;;7.32;;
7545;SDS011;3814;51.454;12.616;2024-02-26T03:18:08;12.30;;;7.50;;
7545;SDS011;3814;51.454;12.616;2024-02-26T03:20:33;12.50;;;7.43;;
7545;SDS011;3814;51.454;12.616;2024-02-26T03:22:58;12.67;;;7.23;;
7545;SDS011;3814;51.454;12.616;2024-02-26T03:25:25;16.13;;;8.55;;
7545;SDS011;3814;51.454;12.616;2024-02-26T03:27:50;14.93;;;8.93;;
7545;SDS011;3814;51.454;12.616;2024-02-26T03:30:15;16.47;;;8.83;;
7545;SDS011;3814;51.454;12.616;2024-02-26T03:32:41;15.90;;;8.77;;
7545;SDS011;3814;51.454;12.616;2024-02-26T03:35:06;16.10;;;9.00;;
7545;SDS011;3814;51.454;12.616;2024-02-26T03:37:33;17.10;;;9.80;;
7545;SDS011;3814;51.454;12.616;2024-02-26T03:39:59;19.50;;;9.03;;
7545;SDS011;3814;51.454;12.616;2024-02-26T03:42:26;18.00;;;9.40;;
7545;SDS011;3814;51.454;12.616;2024-02-26T03:44:51;18.92;;;10.15;;
7545;SDS011;3814;51.454;12.616;2024-02-26T03:47:16;16.20;;;9.23;;
7545;SDS011;3814;51.454;12.616;2024-02-26T03:49:42;17.60;;;9.77;;
7545;SDS011;3814;51.454;12.616;2024-02-26T03:52:07;16.83;;;10.00;;
7545;SDS011;3814;51.454;12.616;2024-02-26T03:54:33;22.33;;;11.53;;
7545;SDS011;3814;51.454;12.616;2024-02-26T03:56:58;19.77;;;10.13;;
7545;SDS011;3814;51.454;12.616;2024-02-26T03:59:23;21.40;;;10.87;;
7545;SDS011;3814;51.454;12.616;2024-02-26T04:01:50;17.27;;;10.13;;
7545;SDS011;3814;51.454;12.616;2024-02-26T04:04:16;22.75;;;10.93;;
7545;SDS011;3814;51.454;12.616;2024-02-26T04:06:45;21.13;;;11.02;;
7545;SDS011;3814;51.454;12.616;2024-02-26T04:09:11;20.58;;;9.90;;
7545;SDS011;3814;51.454;12.616;2024-02-26T04:11:36;20.15;;;10.32;;
7545;SDS011;3814;51.454;12.616;2024-02-26T04:14:01;18.10;;;9.90;;
7545;SDS011;3814;51.454;12.616;2024-02-26T04:16:28;19.23;;;10.40;;
7545;SDS011;3814;51.454;12.616;2024-02-26T04:18:53;20.20;;;10.33;;
7545;SDS011;3814;51.454;12.616;2024-02-26T04:21:19;20.63;;;9.98;;
7545;SDS011;3814;51.454;12.616;2024-02-26T04:23:44;19.27;;;10.47;;
7545;SDS011;3814;51.454;12.616;2024-02-26T04:26:10;20.57;;;9.97;;
7545;SDS011;3814;51.454;12.616;2024-02-26T04:28:35;21.37;;;11.13;;
7545;SDS011;3814;51.454;12.616;2024-02-26T04:31:01;19.77;;;10.00;;
7545;SDS011;3814;51.454;12.616;2024-02-26T04:33:26;22.35;;;11.48;;
7545;SDS011;3814;51.454;12.616;2024-02-26T04:35:52;21.53;;;10.87;;
7545;SDS011;3814;51.454;12.616;2024-02-26T04:38:18;20.25;;;10.77;;
7545;SDS011;3814;51.454;12.616;2024-02-26T04:40:44;20.43;;;11.10;;
7545;SDS011;3814;51.454;12.616;2024-02-26T04:43:09;25.17;;;13.00;;
7545;SDS011;3814;51.454;12.616;2024-02-26T04:45:34;22.48;;;12.52;;
7545;SDS011;3814;51.454;12.616;2024-02-26T04:48:00;23.00;;;11.97;;
7545;SDS011;3814;51.454;12.616;2024-02-26T04:50:25;22.03;;;11.17;;
7545;SDS011;3814;51.454;12.616;2024-02-26T04:52:50;20.87;;;10.33;;
7545;SDS011;3814;51.454;12.616;2024-02-26T04:55:15;23.10;;;11.77;;
7545;SDS011;3814;51.454;12.616;2024-02-26T04:57:41;22.83;;;11.07;;
7545;SDS011;3814;51.454;12.616;2024-02-26T05:00:06;21.07;;;10.93;;
7545;SDS011;3814;51.454;12.616;2024-02-26T05:02:33;22.30;;;11.95;;
7545;SDS011;3814;51.454;12.616;2024-02-26T05:05:02;20.27;;;10.63;;
7545;SDS011;3814;51.454;12.616;2024-02-26T05:07:29;19.70;;;9.85;;
7545;SDS011;3814;51.454;12.616;2024-02-26T05:09:54;19.50;;;10.50;;
7545;SDS011;3814;51.454;12.616;2024-02-26T05:12:20;22.98;;;11.68;;
7545;SDS011;3814;51.454;12.616;2024-02-26T05:14:46;20.37;;;10.10;;
7545;SDS011;3814;51.454;12.616;2024-02-26T05:17:11;23.57;;;11.03;;
7545;SDS011;3814;51.454;12.616;2024-02-26T05:19:36;19.88;;;10.80;;
7545;SDS011;3814;51.454;12.616;2024-02-26T05:22:02;21.63;;;10.77;;
7545;SDS011;3814;51.454;12.616;2024-02-26T05:24:27;19.00;;;10.73;;
7545;SDS011;3814;51.454;12.616;2024-02-26T05:26:53;20.57;;;11.10;;
7545;SDS011;3814;51.454;12.616;2024-02-26T05:29:19;21.70;;;10.55;;
7545;SDS011;3814;51.454;12.616;2024-02-26T05:31:44;24.90;;;11.93;;
7545;SDS011;3814;51.454;12.616;2024-02-26T05:34:10;19.87;;;10.00;;
7545;SDS011;3814;51.454;12.616;2024-02-26T05:36:35;18.43;;;9.63;;
7545;SDS011;3814;51.454;12.616;2024-02-26T05:39:00;18.43;;;9.87;;
7545;SDS011;3814;51.454;12.616;2024-02-26T05:41:26;18.83;;;9.30;;
7545;SDS011;3814;51.454;12.616;2024-02-26T05:43:54;16.57;;;8.87;;
7545;SDS011;3814;51.454;12.616;2024-02-26T05:46:20;18.20;;;10.35;;
7545;SDS011;3814;51.454;12.616;2024-02-26T05:48:50;19.08;;;10.60;;
7545;SDS011;3814;51.454;12.616;2024-02-26T05:51:16;19.40;;;9.88;;
7545;SDS011;3814;51.454;12.616;2024-02-26T05:53:42;20.40;;;10.37;;
7545;SDS011;3814;51.454;12.616;2024-02-26T05:56:07;21.77;;;10.52;;
7545;SDS011;3814;51.454;12.616;2024-02-26T05:58:33;18.90;;;10.43;;
7545;SDS011;3814;51.454;12.616;2024-02-26T06:00:58;22.93;;;10.60;;
7545;SDS011;3814;51.454;12.616;2024-02-26T06:03:25;20.15;;;10.32;;
7545;SDS011;3814;51.454;12.616;2024-02-26T06:05:50;20.73;;;10.80;;
7545;SDS011;3814;51.454;12.616;2024-02-26T06:08:15;21.00;;;11.77;;
7545;SDS011;3814;51.454;12.616;2024-02-26T06:10:42;21.33;;;10.87;;
7545;SDS011;3814;51.454;12.616;2024-02-26T06:13:07;21.33;;;11.55;;
7545;SDS011;3814;51.454;12.616;2024-02-26T06:15:32;23.50;;;11.63;;
7545;SDS011;3814;51.454;12.616;2024-02-26T06:17:58;21.07;;;11.53;;
7545;SDS011;3814;51.454;12.616;2024-02-26T06:20:23;24.53;;;11.97;;
7545;SDS011;3814;51.454;12.616;2024-02-26T06:22:48;24.37;;;12.17;;
7545;SDS011;3814;51.454;12.616;2024-02-26T06:25:14;22.80;;;11.90;;
7545;SDS011;3814;51.454;12.616;2024-02-26T06:27:39;24.87;;;11.40;;
7545;SDS011;3814;51.454;12.616;2024-02-26T06:30:05;22.10;;;11.52;;
7545;SDS011;3814;51.454;12.616;2024-02-26T06:32:30;22.95;;;11.98;;
7545;SDS011;3814;51.454;12.616;2024-02-26T06:34:56;23.40;;;12.52;;
7545;SDS011;3814;51.454;12.616;2024-02-26T06:37:22;26.38;;;11.88;;
7545;SDS011;3814;51.454;12.616;2024-02-26T06:39:47;23.47;;;11.80;;
7545;SDS011;3814;51.454;12.616;2024-02-26T06:42:13;26.20;;;12.27;;
7545;SDS011;3814;51.454;12.616;2024-02-26T06:44:40;25.50;;;12.00;;
7545;SDS011;3814;51.454;12.616;2024-02-26T06:47:06;21.08;;;11.20;;
7545;SDS011;3814;51.454;12.616;2024-02-26T06:49:31;24.63;;;12.07;;
7545;SDS011;3814;51.454;12.616;2024-02-26T06:51:56;23.87;;;11.50;;
7545;SDS011;3814;51.454;12.616;2024-02-26T06:54:22;24.10;;;11.73;;
7545;SDS011;3814;51.454;12.616;2024-02-26T06:56:47;25.40;;;12.43;;
7545;SDS011;3814;51.454;12.616;2024-02-26T06:59:12;26.93;;;13.27;;
7545;SDS011;3814;51.454;12.616;2024-02-26T07:01:40;21.27;;;11.13;;
7545;SDS011;3814;51.454;12.616;2024-02-26T07:04:06;26.45;;;12.80;;
7545;SDS011;3814;51.454;12.616;2024-02-26T07:06:31;26.23;;;12.97;;
7545;SDS011;3814;51.454;12.616;2024-02-26T07:08:58;25.95;;;13.20;;
7545;SDS011;3814;51.454;12.616;2024-02-26T07:11:23;25.70;;;11.95;;
7545;SDS011;3814;51.454;12.616;2024-02-26T07:13:48;20.53;;;10.90;;
7545;SDS011;3814;51.454;12.616;2024-02-26T07:16:14;23.10;;;11.73;;
7545;SDS011;3814;51.454;12.616;2024-02-26T07:18:40;26.52;;;11.82;;
7545;SDS011;3814;51.454;12.616;2024-02-26T07:21:05;20.90;;;12.33;;
7545;SDS011;3814;51.454;12.616;2024-02-26T07:23:31;23.30;;;12.10;;
7545;SDS011;3814;51.454;12.616;2024-02-26T07:25:56;25.27;;;12.25;;
7545;SDS011;3814;51.454;12.616;2024-02-26T07:28:21;27.20;;;12.13;;
7545;SDS011;3814;51.454;12.616;2024-02-26T07:30:48;21.60;;;11.90;;
7545;SDS011;3814;51.454;12.616;2024-02-26T07:33:13;23.77;;;11.90;;
7545;SDS011;3814;51.454;12.616;2024-02-26T07:35:39;24.60;;;12.35;;
7545;SDS011;3814;51.454;12.616;2024-02-26T07:38:05;21.95;;;11.60;;
7545;SDS011;3814;51.454;12.616;2024-02-26T07:40:30;25.27;;;12.40;;
7545;SDS011;3814;51.454;12.616;2024-02-26T07:42:55;21.42;;;11.48;;
7545;SDS011;3814;51.454;12.616;2024-02-26T07:45:21;19.90;;;11.80;;
7545;SDS011;3814;51.454;12.616;2024-02-26T07:47:47;23.38;;;11.75;;
7545;SDS011;3814;51.454;12.616;2024-02-26T07:50:12;24.30;;;12.50;;
7545;SDS011;3814;51.454;12.616;2024-02-26T07:52:37;23.70;;;11.20;;
7545;SDS011;3814;51.454;12.616;2024-02-26T07:55:03;20.25;;;11.35;;
7545;SDS011;3814;51.454;12.616;2024-02-26T07:57:29;18.95;;;10.30;;
7545;SDS011;3814;51.454;12.616;2024-02-26T07:59:54;20.93;;;10.17;;
7545;SDS011;3814;51.454;12.616;2024-02-26T08:02:20;19.15;;;10.50;;
7545;SDS011;3814;51.454;12.616;2024-02-26T08:04:46;19.30;;;9.95;;
7545;SDS011;3814;51.454;12.616;2024-02-26T08:07:12;16.47;;;9.20;;
7545;SDS011;3814;51.454;12.616;2024-02-26T08:09:37;17.50;;;9.20;;
7545;SDS011;3814;51.454;12.616;2024-02-26T08:12:02;12.30;;;8.53;;
7545;SDS011;3814;51.454;12.616;2024-02-26T08:14:28;16.95;;;8.90;;
7545;SDS011;3814;51.454;12.616;2024-02-26T08:16:53;13.77;;;9.40;;
7545;SDS011;3814;51.454;12.616;2024-02-26T08:19:18;15.20;;;8.70;;
7545;SDS011;3814;51.454;12.616;2024-02-26T08:21:44;12.53;;;8.40;;
7545;SDS011;3814;51.454;12.616;2024-02-26T08:24:09;12.30;;;8.43;;
7545;SDS011;3814;51.454;12.616;2024-02-26T08:26:35;13.02;;;8.07;;
7545;SDS011;3814;51.454;12.616;2024-02-26T08:29:00;15.50;;;8.47;;
7545;SDS011;3814;51.454;12.616;2024-02-26T08:31:26;14.10;;;8.82;;
7545;SDS011;3814;51.454;12.616;2024-02-26T08:33:52;13.75;;;8.05;;
7545;SDS011;3814;51.454;12.616;2024-02-26T08:36:18;15.23;;;8.10;;
7545;SDS011;3814;51.454;12.616;2024-02-26T08:38:43;16.00;;;8.67;;
7545;SDS011;3814;51.454;12.616;2024-02-26T08:41:08;12.43;;;7.50;;
7545;SDS011;3814;51.454;12.616;2024-02-26T08:43:33;12.73;;;8.37;;
7545;SDS011;3814;51.454;12.616;2024-02-26T08:45:59;15.13;;;8.27;;
7545;SDS011;3814;51.454;12.616;2024-02-26T08:48:24;12.73;;;7.73;;
7545;SDS011;3814;51.454;12.616;2024-02-26T08:50:49;15.93;;;8.67;;
7545;SDS011;3814;51.454;12.616;2024-02-26T08:53:15;15.70;;;8.20;;
7545;SDS011;3814;51.454;12.616;2024-02-26T08:55:40;13.50;;;8.20;;
7545;SDS011;3814;51.454;12.616;2024-02-26T08:58:05;11.60;;;7.70;;
7545;SDS011;3814;51.454;12.616;2024-02-26T09:00:30;12.70;;;7.47;;
7545;SDS011;3814;51.454;12.616;2024-02-26T09:02:56;13.40;;;8.40;;
7545;SDS011;3814;51.454;12.616;2024-02-26T09:05:21;13.13;;;7.25;;
7545;SDS011;3814;51.454;12.616;2024-02-26T09:07:46;13.40;;;7.57;;
7545;SDS011;3814;51.454;12.616;2024-02-26T09:10:12;13.07;;;8.03;;
7545;SDS011;3814;51.454;12.616;2024-02-26T09:12:37;14.83;;;8.43;;
7545;SDS011;3814;51.454;12.616;2024-02-26T09:15:05;12.88;;;8.00;;
7545;SDS011;3814;51.454;12.616;2024-02-26T09:17:31;11.27;;;7.20;;
7545;SDS011;3814;51.454;12.616;2024-02-26T09:19:56;11.83;;;7.20;;
7545;SDS011;3814;51.454;12.616;2024-02-26T09:22:21;12.37;;;7.20;;
7545;SDS011;3814;51.454;12.616;2024-02-26T09:24:47;11.93;;;7.13;;
7545;SDS011;3814;51.454;12.616;2024-02-26T09:27:14;12.70;;;7.63;;
7545;SDS011;3814;51.454;12.616;2024-02-26T09:29:39;11.50;;;7.43;;
7545;SDS011;3814;51.454;12.616;2024-02-26T09:32:05;10.17;;;6.57;;
7545;SDS011;3814;51.454;12.616;2024-02-26T09:34:30;11.15;;;7.35;;
7545;SDS011;3814;51.454;12.616;2024-02-26T09:36:55;10.43;;;6.80;;
7545;SDS011;3814;51.454;12.616;2024-02-26T09:39:21;12.27;;;7.57;;
7545;SDS011;3814;51.454;12.616;2024-02-26T09:41:47;12.60;;;6.80;;
7545;SDS011;3814;51.454;12.616;2024-02-26T09:44:13;9.77;;;6.25;;
7545;SDS011;3814;51.454;12.616;2024-02-26T09:46:47;8.55;;;5.75;;
7545;SDS011;3814;51.454;12.616;2024-02-26T09:49:12;9.43;;;6.15;;
7545;SDS011;3814;51.454;12.616;2024-02-26T09:51:40;11.27;;;7.15;;
7545;SDS011;3814;51.454;12.616;2024-02-26T09:54:07;12.70;;;6.33;;
7545;SDS011;3814;51.454;12.616;2024-02-26T09:56:32;10.75;;;5.88;;
7545;SDS011;3814;51.454;12.616;2024-02-26T09:58:58;11.27;;;6.65;;
7545;SDS011;3814;51.454;12.616;2024-02-26T10:01:23;9.68;;;5.85;;
7545;SDS011;3814;51.454;12.616;2024-02-26T10:03:54;9.52;;;5.47;;
7545;SDS011;3814;51.454;12.616;2024-02-26T10:06:20;9.20;;;5.47;;
7545;SDS011;3814;51.454;12.616;2024-02-26T10:08:46;11.57;;;6.28;;
7545;SDS011;3814;51.454;12.616;2024-02-26T10:11:12;9.02;;;5.93;;
7545;SDS011;3814;51.454;12.616;2024-02-26T10:13:38;10.50;;;6.00;;
7545;SDS011;3814;51.454;12.616;2024-02-26T10:16:03;9.07;;;6.30;;
7545;SDS011;3814;51.454;12.616;2024-02-26T10:18:48;9.43;;;5.45;;
7545;SDS011;3814;51.454;12.616;2024-02-26T10:21:15;8.77;;;5.95;;
7545;SDS011;3814;51.454;12.616;2024-02-26T10:23:42;8.48;;;5.90;;
7545;SDS011;3814;51.454;12.616;2024-02-26T10:26:09;8.82;;;5.82;;
7545;SDS011;3814;51.454;12.616;2024-02-26T10:28:35;9.60;;;6.55;;
7545;SDS011;3814;51.454;12.616;2024-02-26T10:31:01;9.00;;;6.10;;
7545;SDS011;3814;51.454;12.616;2024-02-26T10:33:26;10.07;;;6.07;;
7545;SDS011;3814;51.454;12.616;2024-02-26T10:35:51;9.37;;;5.57;;
7545;SDS011;3814;51.454;12.616;2024-02-26T10:38:18;9.75;;;6.00;;
7545;SDS011;3814;51.454;12.616;2024-02-26T10:40:45;9.55;;;6.28;;
7545;SDS011;3814;51.454;12.616;2024-02-26T10:43:11;9.85;;;5.78;;
7545;SDS011;3814;51.454;12.616;2024-02-26T10:45:38;9.27;;;6.45;;
7545;SDS011;3814;51.454;12.616;2024-02-26T10:48:09;10.20;;;5.90;;
7545;SDS011;3814;51.454;12.616;2024-02-26T10:50:35;8.50;;;6.38;;
7545;SDS011;3814;51.454;12.616;2024-02-26T10:53:00;7.82;;;5.60;;
7545;SDS011;3814;51.454;12.616;2024-02-26T10:55:26;7.10;;;5.07;;
7545;SDS011;3814;51.454;12.616;2024-02-26T10:57:52;9.35;;;6.07;;
7545;SDS011;3814;51.454;12.616;2024-02-26T11:00:17;10.18;;;5.45;;
7545;SDS011;3814;51.454;12.616;2024-02-26T11:02:44;10.25;;;6.30;;
7545;SDS011;3814;51.454;12.616;2024-02-26T11:05:10;11.85;;;5.75;;
7545;SDS011;3814;51.454;12.616;2024-02-26T11:07:36;10.43;;;5.75;;
7545;SDS011;3814;51.454;12.616;2024-02-26T11:10:02;7.70;;;6.22;;
7545;SDS011;3814;51.454;12.616;2024-02-26T11:12:29;10.57;;;6.03;;
7545;SDS011;3814;51.454;12.616;2024-02-26T11:14:55;10.25;;;6.15;;
7545;SDS011;3814;51.454;12.616;2024-02-26T11:17:21;11.82;;;5.88;;
7545;SDS011;3814;51.454;12.616;2024-02-26T11:19:48;8.60;;;5.65;;
7545;SDS011;3814;51.454;12.616;2024-02-26T11:22:14;9.77;;;5.85;;
7545;SDS011;3814;51.454;12.616;2024-02-26T11:24:40;13.57;;;7.17;;
7545;SDS011;3814;51.454;12.616;2024-02-26T11:27:07;9.40;;;5.47;;
7545;SDS011;3814;51.454;12.616;2024-02-26T11:29:39;10.88;;;5.90;;
7545;SDS011;3814;51.454;12.616;2024-02-26T11:32:07;12.82;;;6.07;;
7545;SDS011;3814;51.454;12.616;2024-02-26T11:34:33;12.15;;;6.25;;
7545;SDS011;3814;51.454;12.616;2024-02-26T11:37:08;10.13;;;5.63;;
7545;SDS011;3814;51.454;12.616;2024-02-26T11:39:35;9.88;;;5.43;;
7545;SDS011;3814;51.454;12.616;2024-02-26T11:42:07;9.40;;;5.40;;
7545;SDS011;3814;51.454;12.616;2024-02-26T11:44:33;7.32;;;5.05;;
7545;SDS011;3814;51.454;12.616;2024-02-26T11:46:59;9.15;;;5.28;;
7545;SDS011;3814;51.454;12.616;2024-02-26T11:49:29;7.90;;;5.15;;
7545;SDS011;3814;51.454;12.616;2024-02-26T11:51:56;9.00;;;5.00;;
7545;SDS011;3814;51.454;12.616;2024-02-26T12:02:44;8.35;;;4.45;;
7545;SDS011;3814;51.454;12.616;2024-02-26T12:05:17;9.65;;;5.13;;
7545;SDS011;3814;51.454;12.616;2024-02-26T12:07:48;7.88;;;4.43;;
7545;SDS011;3814;51.454;12.616;2024-02-26T12:10:23;10.65;;;5.72;;
7545;SDS011;3814;51.454;12.616;2024-02-26T12:13:05;7.00;;;4.45;;
7545;SDS011;3814;51.454;12.616;2024-02-26T12:15:37;11.43;;;4.75;;
7545;SDS011;3814;51.454;12.616;2024-02-26T12:18:07;7.05;;;4.72;;
7545;SDS011;3814;51.454;12.616;2024-02-26T12:20:34;5.55;;;3.75;;
7545;SDS011;3814;51.454;12.616;2024-02-26T12:23:00;6.28;;;4.47;;
7545;SDS011;3814;51.454;12.616;2024-02-26T12:25:28;9.63;;;4.20;;
7545;SDS011;3814;51.454;12.616;2024-02-26T12:27:54;6.15;;;4.55;;
7545;SDS011;3814;51.454;12.616;2024-02-26T12:30:19;6.35;;;4.55;;
7545;SDS011;3814;51.454;12.616;2024-02-26T12:32:45;7.25;;;4.50;;
7545;SDS011;3814;51.454;12.616;2024-02-26T12:35:13;9.15;;;5.38;;
7545;SDS011;3814;51.454;12.616;2024-02-26T12:37:38;9.93;;;4.70;;
7545;SDS011;3814;51.454;12.616;2024-02-26T12:40:07;9.30;;;4.95;;
7545;SDS011;3814;51.454;12.616;2024-02-26T12:42:33;7.60;;;4.63;;
7545;SDS011;3814;51.454;12.616;2024-02-26T12:45:04;9.23;;;4.63;;
7545;SDS011;3814;51.454;12.616;2024-02-26T12:47:34;8.95;;;4.60;;
7545;SDS011;3814;51.454;12.616;2024-02-26T12:50:00;8.63;;;4.07;;
7545;SDS011;3814;51.454;12.616;2024-02-26T12:52:26;6.23;;;4.63;;
7545;SDS011;3814;51.454;12.616;2024-02-26T12:54:51;9.43;;;4.37;;
7545;SDS011;3814;51.454;12.616;2024-02-26T12:57:16;6.93;;;4.27;;
7545;SDS011;3814;51.454;12.616;2024-02-26T12:59:41;7.13;;;4.43;;
7545;SDS011;3814;51.454;12.616;2024-02-26T13:02:07;7.35;;;4.60;;
7545;SDS011;3814;51.454;12.616;2024-02-26T13:04:32;9.73;;;5.00;;
7545;SDS011;3814;51.454;12.616;2024-02-26T13:06:58;6.63;;;4.50;;
7545;SDS011;3814;51.454;12.616;2024-02-26T13:09:27;8.48;;;5.00;;
7545;SDS011;3814;51.454;12.616;2024-02-26T13:11:56;11.37;;;5.07;;
7545;SDS011;3814;51.454;12.616;2024-02-26T13:14:21;8.00;;;4.55;;
7545;SDS011;3814;51.454;12.616;2024-02-26T13:16:56;9.10;;;4.63;;
7545;SDS011;3814;51.454;12.616;2024-02-26T13:19:21;8.80;;;5.18;;
7545;SDS011;3814;51.454;12.616;2024-02-26T13:21:47;7.87;;;4.57;;
7545;SDS011;3814;51.454;12.616;2024-02-26T13:24:12;8.93;;;4.27;;
7545;SDS011;3814;51.454;12.616;2024-02-26T13:26:38;9.55;;;4.20;;
7545;SDS011;3814;51.454;12.616;2024-02-26T13:29:05;7.53;;;4.65;;
7545;SDS011;3814;51.454;12.616;2024-02-26T13:31:39;9.02;;;5.53;;
7545;SDS011;3814;51.454;12.616;2024-02-26T13:34:10;9.48;;;5.07;;
7545;SDS011;3814;51.454;12.616;2024-02-26T13:36:35;9.65;;;6.10;;
7545;SDS011;3814;51.454;12.616;2024-02-26T13:39:00;10.98;;;6.40;;
7545;SDS011;3814;51.454;12.616;2024-02-26T13:41:26;10.07;;;6.05;;
7545;SDS011;3814;51.454;12.616;2024-02-26T13:43:52;10.95;;;6.15;;
7545;SDS011;3814;51.454;12.616;2024-02-26T13:46:17;10.15;;;6.47;;
7545;SDS011;3814;51.454;12.616;2024-02-26T13:48:43;10.60;;;5.93;;
7545;SDS011;3814;51.454;12.616;2024-02-26T13:51:08;11.43;;;6.80;;
7545;SDS011;3814;51.454;12.616;2024-02-26T13:53:34;11.55;;;6.78;;
7545;SDS011;3814;51.454;12.616;2024-02-26T13:56:07;13.45;;;6.57;;
7545;SDS011;3814;51.454;12.616;2024-02-26T13:58:33;12.00;;;6.25;;
7545;SDS011;3814;51.454;12.616;2024-02-26T14:00:58;13.80;;;6.70;;
7545;SDS011;3814;51.454;12.616;2024-02-26T14:03:24;10.25;;;6.65;;
7545;SDS011;3814;51.454;12.616;2024-02-26T14:05:50;9.87;;;6.17;;
7545;SDS011;3814;51.454;12.616;2024-02-26T14:08:15;9.70;;;6.47;;
7545;SDS011;3814;51.454;12.616;2024-02-26T14:10:41;10.35;;;6.20;;
7545;SDS011;3814;51.454;12.616;2024-02-26T14:13:10;9.82;;;6.30;;
7545;SDS011;3814;51.454;12.616;2024-02-26T14:15:36;10.05;;;6.40;;
7545;SDS011;3814;51.454;12.616;2024-02-26T14:18:04;10.60;;;6.20;;
7545;SDS011;3814;51.454;12.616;2024-02-26T14:20:29;10.30;;;6.13;;
7545;SDS011;3814;51.454;12.616;2024-02-26T14:22:55;8.70;;;6.03;;
7545;SDS011;3814;51.454;12.616;2024-02-26T14:25:20;10.63;;;5.68;;
7545;SDS011;3814;51.454;12.616;2024-02-26T14:27:47;10.80;;;5.50;;
7545;SDS011;3814;51.454;12.616;2024-02-26T14:30:12;12.18;;;6.10;;
7545;SDS011;3814;51.454;12.616;2024-02-26T14:32:43;11.27;;;6.10;;
7545;SDS011;3814;51.454;12.616;2024-02-26T14:35:08;10.80;;;5.72;;
7545;SDS011;3814;51.454;12.616;2024-02-26T14:37:35;11.80;;;5.85;;
7545;SDS011;3814;51.454;12.616;2024-02-26T14:40:01;10.25;;;6.20;;
7545;SDS011;3814;51.454;12.616;2024-02-26T14:42:28;11.25;;;6.47;;
7545;SDS011;3814;51.454;12.616;2024-02-26T14:44:53;10.07;;;5.95;;
7545;SDS011;3814;51.454;12.616;2024-02-26T14:47:19;10.80;;;6.13;;
7545;SDS011;3814;51.454;12.616;2024-02-26T14:49:44;10.27;;;6.10;;
7545;SDS011;3814;51.454;12.616;2024-02-26T14:52:12;10.63;;;5.95;;